Información del aeropuerto WMKP

Información de pista
Pista 04 Longitud 10997 ft Anchura 150 ft
Elevación 10 ft Umbral ft Rumbo 42
Pista 22 Longitud 10997 ft Anchura 150 ft
Elevación 11 ft Umbral ft Rumbo 222
Frecuencias del aeropuerto
Tipo ATIS Nombre ATIS Frecuencia 126.4 MHZ
Tipo GND Nombre PENANG GR Frecuencia 121.6 MHZ
Tipo TWR Nombre PENANG TOW Frecuencia 121.1 MHZ
Radioayudas del aeropuerto
Tipo NDB Nombre Penang Frecuencia 406 KHZ
Tipo VOR-DME Nombre Penang Frecuencia 116200 KHZ
Información meteorológica del aeropuerto y NOTAM
ADDS - METARS form results

(1128 UTC 30 June 2022)
Data provider http://aviationweather.gov/metar/data/
 
METAR text: WMKP 301100Z VRB02KT 9000 FEW020 31/24 Q1004 NOSIG
Conditions at: WMKP (PENANG/BAYAN LEP, MY) observed 1100 UTC 30 June 2022
Temperature: 31.0°C (88°F)
Dewpoint: 24.0°C (75°F) [RH = 66%]
Pressure (altimeter): 29.65 inches Hg (1004.0 mb)
Winds: variable direction winds at 2 MPH (2 knots; 1.0 m/s)
Visibility: 6 miles ( 9 km)
Ceiling: at least 12,000 feet AGL
Clouds: few clouds at 2000 feet AGL
Weather: no significant weather observed at this time

METAR text: WMKP 301030Z 23003KT 200V260 9999 FEW020 31/23 Q1004 NOSIG
Conditions at: WMKP (PENANG/BAYAN LEP, MY) observed 1030 UTC 30 June 2022
Temperature: 31.0°C (88°F)
Dewpoint: 23.0°C (73°F) [RH = 63%]
Pressure (altimeter): 29.65 inches Hg (1004.0 mb)
Winds: from the SW (230 degrees) at 3 MPH (3 knots; 1.5 m/s)
Visibility: 6 or more miles (10+ km)
Ceiling: at least 12,000 feet AGL
Clouds: few clouds at 2000 feet AGL
Weather: no significant weather observed at this time

Forecast for: WMKP (PENANG/BAYAN LEP, MY)
Text: TAF WMKP 301100Z 3012/0112 VRB03KT 8000 FEW025
Forecast period: 1200 UTC 30 June 2022 to 0400 UTC 01 July 2022
Forecast type: FROM: standard forecast or significant change
Winds: variable direction winds at 3 MPH (3 knots; 1.5 m/s)
Visibility: 5 miles (8 km)
Ceiling: at least 12,000 feet AGL
Clouds: few clouds at 2500 feet AGL
Weather: no significant weather forecast for this period
Text: BECMG 0104/0106 23008KT
Forecast period: 0400 to 1000 UTC 01 July 2022
Forecast type: BECOMING: Conditions expected to become as follows by 0600 UTC 01 July 2022
Winds: from the SW (230 degrees) at 9 MPH (8 knots; 4.1 m/s)
Visibility: 5 miles (8 km)
Ceiling: at least 12,000 feet AGL
Clouds: few clouds at 2500 feet AGL
Weather: no significant weather forecast for this period
Text: BECMG 0110/0112 VRB03KT
Forecast period: 1000 to 1200 UTC 01 July 2022
Forecast type: BECOMING: Conditions expected to become as follows by 1200 UTC 01 July 2022
Winds: variable direction winds at 3 MPH (3 knots; 1.5 m/s)
Visibility: 5 miles (8 km)
Ceiling: at least 12,000 feet AGL
Clouds: few clouds at 2500 feet AGL
Weather: no significant weather forecast for this period